Duco, Kentucky
Current Conditions -  °F | °C
As of 5:41 AM on Saturday 01 Nov 2014 (Local Time) from KJKL Reporting Station
Light Snow Light Snow  
Wind Chill: -5°   Ceiling: 600
Heat Index:   Visibility: 3mi
Dew Point: -1°   Wind: 10mph
Humidity: 92%   Direction: 330°NNW
Pressure: 29.95"   Gusts: 18mph
Location:  37.7261°N, 83.0786°W
Report Text: KJKL 010941Z AUTO 33009G16KT 300V360 3SM -SN BR BKN006 OVC011 00/M01 A2995 RMK AO2 P0004 T00001011
Loading
Personal Weather Stations






























Interactive Weather Map
Tropical Storm Tracking
New forecast layout! Learn more

10-Day Weather Forecast

Advertisements
Track Severe Weather on mobile